Time;durP1;ratioP1;P1;durP2;ratioP2;P2;SDS_P1;SDS_P2;PMS_P1;PMS_P2;Temp;Humidity;BMP_temperature;BMP_pressure;BME280_temperature;BME280_humidity;BME280_pressure;Samples;Min_cycle;Max_cycle;Signal;HPM_P1;HPM_P2
2023/10/23 00:00:54;;;;;;;1.27;0.73;;;14.30;99.90;;;;;;4998171;28;20245;-78
2023/10/23 00:03:22;;;;;;;1.45;0.77;;;14.30;99.90;;;;;;4995713;28;20786;-77
2023/10/23 00:05:48;;;;;;;0.77;0.65;;;14.30;99.90;;;;;;4990115;28;20293;-78
2023/10/23 00:08:16;;;;;;;0.80;0.60;;;14.30;99.90;;;;;;4997239;28;20274;-72
2023/10/23 00:10:44;;;;;;;0.85;0.70;;;14.40;99.90;;;;;;4998321;28;20178;-77
2023/10/23 00:13:10;;;;;;;1.00;0.70;;;14.40;99.90;;;;;;5007947;28;20224;-78
2023/10/23 00:15:39;;;;;;;1.48;0.70;;;14.30;99.90;;;;;;4989927;28;20171;-75
2023/10/23 00:18:05;;;;;;;2.75;0.90;;;14.30;99.90;;;;;;5002825;28;20198;-78
2023/10/23 00:20:33;;;;;;;0.73;0.68;;;14.30;99.90;;;;;;4995557;28;20251;-76
2023/10/23 00:22:58;;;;;;;2.10;0.77;;;14.40;99.90;;;;;;5002098;28;20273;-76
2023/10/23 00:25:26;;;;;;;1.13;0.70;;;14.40;99.90;;;;;;5000896;28;20289;-77
2023/10/23 00:27:52;;;;;;;1.02;0.60;;;14.30;99.90;;;;;;5001388;28;20458;-78
2023/10/23 00:30:17;;;;;;;1.20;0.80;;;14.30;99.90;;;;;;5003611;28;20194;-80
2023/10/23 00:32:45;;;;;;;0.68;0.60;;;14.30;99.90;;;;;;4985849;28;20210;-76
2023/10/23 00:35:14;;;;;;;1.30;0.60;;;14.30;99.90;;;;;;4999438;28;20185;-77
2023/10/23 00:37:44;;;;;;;1.17;0.80;;;14.30;99.90;;;;;;5016955;28;20202;-78
2023/10/23 00:40:12;;;;;;;0.98;0.60;;;14.20;99.90;;;;;;4998328;28;20176;-79
2023/10/23 00:42:38;;;;;;;0.93;0.73;;;14.20;99.90;;;;;;5001624;28;20198;-66
2023/10/23 00:45:04;;;;;;;1.00;0.70;;;14.20;99.90;;;;;;4985660;28;20213;-67
2023/10/23 00:47:30;;;;;;;0.93;0.60;;;14.20;99.90;;;;;;5001115;28;20208;-67
2023/10/23 00:49:57;;;;;;;1.80;0.80;;;14.10;99.90;;;;;;4995947;28;20223;-67
2023/10/23 00:52:23;;;;;;;1.00;0.63;;;14.10;99.90;;;;;;4995530;28;20197;-67
2023/10/23 00:54:53;;;;;;;0.85;0.52;;;14.00;99.90;;;;;;5000999;28;20175;-67
2023/10/23 00:57:19;;;;;;;1.00;0.70;;;14.00;99.90;;;;;;4981850;28;20175;-67
2023/10/23 00:59:47;;;;;;;0.70;0.70;;;13.90;99.90;;;;;;5000070;28;20186;-67
2023/10/23 01:02:14;;;;;;;1.25;0.60;;;13.90;99.90;;;;;;5001147;28;20199;-66
2023/10/23 01:04:40;;;;;;;1.20;0.60;;;13.90;99.90;;;;;;5001768;28;20167;-67
2023/10/23 01:07:06;;;;;;;1.33;0.73;;;13.80;99.90;;;;;;5001519;28;20249;-68
2023/10/23 01:09:32;;;;;;;0.60;0.60;;;13.80;99.90;;;;;;5000771;28;20213;-67
2023/10/23 01:11:57;;;;;;;1.77;0.90;;;13.70;99.90;;;;;;5001952;28;20282;-67
2023/10/23 01:14:25;;;;;;;1.80;0.90;;;13.70;99.90;;;;;;5001134;28;20190;-67
2023/10/23 01:16:53;;;;;;;2.15;0.77;;;13.70;99.90;;;;;;5001256;28;20282;-68
2023/10/23 01:19:18;;;;;;;1.52;0.80;;;13.70;99.90;;;;;;5001167;28;20174;-68
2023/10/23 01:21:46;;;;;;;1.35;0.90;;;13.70;99.90;;;;;;5000748;28;20187;-67
2023/10/23 01:24:14;;;;;;;2.17;0.90;;;13.60;99.90;;;;;;5001010;28;20202;-66
2023/10/23 01:26:40;;;;;;;1.67;0.77;;;13.60;99.90;;;;;;5017448;28;20187;-67
2023/10/23 01:29:35;;;;;;;0.90;0.80;;;13.60;99.90;;;;;;5001201;28;20261;-70
2023/10/23 01:32:00;;;;;;;1.10;0.75;;;13.60;99.90;;;;;;5011960;28;20174;-67
2023/10/23 01:34:31;;;;;;;0.93;0.63;;;13.50;99.90;;;;;;5000181;28;20182;-69
2023/10/23 01:37:03;;;;;;;3.42;0.90;;;13.50;99.90;;;;;;4991717;28;20219;-69
2023/10/23 01:39:29;;;;;;;2.28;0.90;;;13.40;99.90;;;;;;4994611;28;20188;-68
2023/10/23 01:41:54;;;;;;;0.85;0.70;;;13.40;99.90;;;;;;5016644;28;20257;-66
2023/10/23 01:44:35;;;;;;;1.38;0.90;;;13.40;99.90;;;;;;5006918;28;20183;-68
2023/10/23 01:47:01;;;;;;;1.75;0.90;;;13.30;99.90;;;;;;4992048;28;20210;-67
2023/10/23 01:49:27;;;;;;;1.30;0.90;;;13.30;99.90;;;;;;5000054;28;20213;-68
2023/10/23 01:51:53;;;;;;;1.35;0.80;;;13.30;99.90;;;;;;4993326;28;20176;-68
2023/10/23 01:54:18;;;;;;;0.82;0.70;;;13.30;99.90;;;;;;4998347;28;20221;-64
2023/10/23 01:56:44;;;;;;;2.28;0.80;;;13.30;99.90;;;;;;5010774;28;20254;-67
2023/10/23 01:59:09;;;;;;;2.03;1.05;;;13.30;99.90;;;;;;4986205;28;20178;-67
2023/10/23 02:01:38;;;;;;;0.93;0.70;;;13.20;99.90;;;;;;4985795;28;20195;-67
2023/10/23 02:04:04;;;;;;;3.25;0.80;;;13.20;99.90;;;;;;4996491;28;20178;-68
2023/10/23 02:06:30;;;;;;;3.05;1.00;;;13.20;99.90;;;;;;4999997;28;20289;-70
2023/10/23 02:08:59;;;;;;;2.65;0.98;;;13.20;99.90;;;;;;4986964;28;20226;-66
2023/10/23 02:11:27;;;;;;;2.53;0.95;;;13.10;99.90;;;;;;4980461;28;20209;-67
2023/10/23 02:13:52;;;;;;;1.70;0.80;;;13.10;99.90;;;;;;5001161;28;20660;-67
2023/10/23 02:16:18;;;;;;;2.10;0.98;;;13.00;99.90;;;;;;5007225;28;20185;-66
2023/10/23 02:18:44;;;;;;;2.20;0.95;;;12.90;99.90;;;;;;4985626;28;20171;-65
2023/10/23 02:21:12;;;;;;;1.25;0.90;;;12.90;99.90;;;;;;5008245;28;20191;-67
2023/10/23 02:23:37;;;;;;;1.13;0.80;;;12.80;99.90;;;;;;4985363;28;20282;-67
2023/10/23 02:26:03;;;;;;;1.65;0.80;;;12.80;99.90;;;;;;4996210;28;20211;-67
2023/10/23 02:28:29;;;;;;;1.33;0.80;;;12.70;99.90;;;;;;4982390;28;20245;-67
2023/10/23 02:30:57;;;;;;;1.10;0.70;;;12.70;99.90;;;;;;4999830;28;20171;-68
2023/10/23 02:33:23;;;;;;;2.72;0.77;;;12.70;99.90;;;;;;4997288;28;20209;-66
2023/10/23 02:35:48;;;;;;;1.38;0.73;;;12.60;99.90;;;;;;4999451;28;20174;-67
2023/10/23 02:38:14;;;;;;;1.08;0.93;;;12.60;99.90;;;;;;4988261;28;20187;-67
2023/10/23 02:40:42;;;;;;;1.23;0.90;;;12.60;99.90;;;;;;4995260;28;20192;-68
2023/10/23 02:43:11;;;;;;;1.38;0.80;;;12.60;99.90;;;;;;4990668;28;20246;-68
2023/10/23 02:45:37;;;;;;;2.88;1.00;;;12.50;99.90;;;;;;4997475;28;20240;-67
2023/10/23 02:48:02;;;;;;;1.60;0.80;;;12.40;99.90;;;;;;4996578;28;20207;-66
2023/10/23 02:50:28;;;;;;;1.55;0.80;;;12.40;99.90;;;;;;4996422;28;20214;-67
2023/10/23 02:52:54;;;;;;;2.85;0.90;;;12.40;99.90;;;;;;4991565;28;20247;-66
2023/10/23 02:55:19;;;;;;;2.60;0.90;;;12.40;99.90;;;;;;5011839;28;20250;-68
2023/10/23 02:57:47;;;;;;;1.75;0.80;;;12.40;99.90;;;;;;4999192;28;20171;-67
2023/10/23 03:00:13;;;;;;;0.80;0.73;;;12.30;99.90;;;;;;4998848;28;20297;-67
2023/10/23 03:02:39;;;;;;;2.25;0.85;;;12.30;99.90;;;;;;4994999;28;20209;-68
2023/10/23 03:05:07;;;;;;;0.90;0.80;;;12.30;99.90;;;;;;4980701;28;20270;-68
2023/10/23 03:07:35;;;;;;;1.13;0.90;;;12.30;99.90;;;;;;4993722;28;20256;-66
2023/10/23 03:10:01;;;;;;;2.20;0.82;;;12.30;99.90;;;;;;4982647;28;20175;-66
2023/10/23 03:12:28;;;;;;;2.35;1.05;;;12.30;99.90;;;;;;4995883;28;20186;-66
2023/10/23 03:14:56;;;;;;;2.88;1.00;;;12.20;99.90;;;;;;4988576;28;20200;-67
2023/10/23 03:17:22;;;;;;;2.72;1.20;;;12.20;99.90;;;;;;4987799;28;20193;-67
2023/10/23 03:19:52;;;;;;;1.67;1.10;;;12.20;99.90;;;;;;4998914;28;20175;-68
2023/10/23 03:22:18;;;;;;;3.58;1.52;;;12.20;99.90;;;;;;4998709;28;20194;-68
2023/10/23 03:24:46;;;;;;;2.53;1.50;;;12.20;99.90;;;;;;4998697;28;20181;-68
2023/10/23 03:27:11;;;;;;;2.53;1.75;;;12.20;99.90;;;;;;4998576;28;20199;-67
2023/10/23 03:29:37;;;;;;;2.70;1.48;;;12.10;99.90;;;;;;4998668;28;20180;-67
2023/10/23 03:32:03;;;;;;;3.33;1.67;;;12.10;99.90;;;;;;4998913;28;20287;-68
2023/10/23 03:34:28;;;;;;;3.22;1.70;;;12.10;99.90;;;;;;4996544;28;20182;-70
2023/10/23 03:36:54;;;;;;;2.45;1.65;;;12.20;99.90;;;;;;5036324;23;20260;-67
2023/10/23 03:39:20;;;;;;;6.32;5.07;;;12.10;99.90;;;;;;5025822;28;20182;-67
2023/10/23 03:41:47;;;;;;;4.00;2.83;;;12.10;99.90;;;;;;5030380;28;20217;-68
2023/10/23 03:44:13;;;;;;;3.78;2.67;;;12.10;99.90;;;;;;5037157;28;20273;-68
2023/10/23 03:46:39;;;;;;;4.43;1.90;;;12.10;99.90;;;;;;5034290;28;20290;-67
2023/10/23 03:49:04;;;;;;;3.67;1.80;;;12.00;99.90;;;;;;5037321;28;20201;-67
2023/10/23 03:51:30;;;;;;;1.92;1.42;;;12.00;99.90;;;;;;5033510;28;20182;-67
2023/10/23 03:53:59;;;;;;;4.35;1.55;;;12.10;99.90;;;;;;5034472;28;20162;-67
2023/10/23 03:56:24;;;;;;;3.60;1.55;;;12.00;99.90;;;;;;5030312;28;20174;-67
2023/10/23 03:58:50;;;;;;;3.42;1.40;;;12.00;99.90;;;;;;5030878;28;20189;-67
2023/10/23 04:01:18;;;;;;;1.90;1.45;;;12.00;99.90;;;;;;5023645;28;20217;-68
2023/10/23 04:03:44;;;;;;;3.35;1.45;;;12.00;99.90;;;;;;5034066;28;20190;-67
2023/10/23 04:06:12;;;;;;;1.80;1.48;;;12.00;99.90;;;;;;5034199;28;20173;-67
2023/10/23 04:08:42;;;;;;;2.60;1.25;;;12.00;99.90;;;;;;5034197;28;20494;-67
2023/10/23 04:11:08;;;;;;;3.85;1.80;;;12.00;99.90;;;;;;5033938;28;20174;-66
2023/10/23 04:13:35;;;;;;;2.70;1.60;;;12.00;99.90;;;;;;5033737;28;20308;-67
2023/10/23 04:16:03;;;;;;;2.42;1.40;;;12.00;99.90;;;;;;5033526;28;20178;-67
2023/10/23 04:18:31;;;;;;;4.55;1.63;;;11.90;99.90;;;;;;5034414;28;20241;-68
2023/10/23 04:21:10;;;;;;;1.60;1.20;;;11.90;99.90;;;;;;5033690;28;20209;-68
2023/10/23 04:23:37;;;;;;;1.90;1.50;;;11.90;99.90;;;;;;5029398;28;20264;-65
2023/10/23 04:26:07;;;;;;;1.90;1.20;;;11.90;99.90;;;;;;5033897;28;20212;-68
2023/10/23 04:28:36;;;;;;;2.00;1.48;;;11.80;99.90;;;;;;5033862;28;20228;-66
2023/10/23 04:31:03;;;;;;;1.70;1.48;;;11.80;99.90;;;;;;5034254;28;20266;-67
2023/10/23 04:33:29;;;;;;;3.75;2.35;;;11.80;99.90;;;;;;5033107;28;20178;-68
2023/10/23 04:35:56;;;;;;;2.85;1.70;;;11.80;99.90;;;;;;5033856;28;20204;-68
2023/10/23 04:38:22;;;;;;;1.98;1.48;;;11.70;99.90;;;;;;5033813;28;21196;-68
2023/10/23 04:40:50;;;;;;;1.88;1.40;;;11.70;99.90;;;;;;5020646;28;20240;-67
2023/10/23 04:43:16;;;;;;;1.63;1.40;;;11.70;99.90;;;;;;5028111;28;20178;-68
2023/10/23 04:45:44;;;;;;;1.52;1.17;;;11.60;99.90;;;;;;5033913;28;20174;-68
2023/10/23 04:48:13;;;;;;;2.22;1.33;;;11.70;99.90;;;;;;5033811;28;20531;-67
2023/10/23 04:50:39;;;;;;;6.18;4.03;;;11.60;99.90;;;;;;5030183;28;20257;-67
2023/10/23 04:53:08;;;;;;;4.75;3.42;;;11.60;99.90;;;;;;5014291;28;20426;-67
2023/10/23 04:55:34;;;;;;;3.85;2.80;;;11.50;99.90;;;;;;5020590;28;20189;-67
2023/10/23 04:58:03;;;;;;;2.22;1.98;;;11.50;99.90;;;;;;5014000;28;20407;-67
2023/10/23 05:00:29;;;;;;;3.55;2.30;;;11.40;99.90;;;;;;5014008;28;20178;-69
2023/10/23 05:02:57;;;;;;;2.63;1.88;;;11.40;99.90;;;;;;5017220;28;20198;-68
2023/10/23 05:05:23;;;;;;;2.97;2.03;;;11.40;99.90;;;;;;5018332;28;20234;-68
2023/10/23 05:07:48;;;;;;;2.53;1.60;;;11.40;99.90;;;;;;5037120;28;20293;-69
2023/10/23 05:10:14;;;;;;;1.90;1.58;;;11.30;99.90;;;;;;5033806;28;20167;-69
2023/10/23 05:12:40;;;;;;;1.40;1.20;;;11.30;99.90;;;;;;5019320;28;20177;-69
2023/10/23 05:15:08;;;;;;;2.58;1.42;;;11.20;99.90;;;;;;5036874;28;20228;-69
2023/10/23 05:17:36;;;;;;;2.22;1.30;;;11.20;99.90;;;;;;5037061;28;20212;-69
2023/10/23 05:20:07;;;;;;;2.17;1.17;;;11.20;99.90;;;;;;5035253;28;20276;-68
2023/10/23 05:22:33;;;;;;;2.00;1.10;;;11.20;99.90;;;;;;5030488;28;20222;-67
2023/10/23 05:24:59;;;;;;;1.67;1.10;;;11.10;99.90;;;;;;5032178;28;20174;-67
2023/10/23 05:27:25;;;;;;;2.42;1.10;;;11.10;99.90;;;;;;5033209;28;20216;-67
2023/10/23 05:29:53;;;;;;;1.83;1.15;;;11.10;99.90;;;;;;5028255;28;20227;-67
2023/10/23 05:32:18;;;;;;;2.25;1.25;;;11.10;99.90;;;;;;5026097;28;20239;-66
2023/10/23 05:35:09;;;;;;;2.80;1.25;;;11.00;99.90;;;;;;5035919;28;20202;-69
2023/10/23 05:37:35;;;;;;;1.95;1.20;;;11.00;99.90;;;;;;5043451;28;20277;-68
2023/10/23 05:40:00;;;;;;;1.80;1.40;;;11.00;99.90;;;;;;5035594;28;20198;-67
2023/10/23 05:42:26;;;;;;;1.70;1.30;;;10.90;99.90;;;;;;5036413;28;20186;-67
2023/10/23 05:44:54;;;;;;;3.25;1.60;;;10.90;99.90;;;;;;5036877;28;20175;-67
2023/10/23 05:47:25;;;;;;;2.75;1.40;;;10.90;99.90;;;;;;5028381;28;20257;-68
2023/10/23 05:49:51;;;;;;;1.92;1.30;;;10.90;99.90;;;;;;5019192;28;20185;-68
2023/10/23 05:52:22;;;;;;;3.75;1.85;;;10.90;99.90;;;;;;5032214;28;20266;-68
2023/10/23 05:54:47;;;;;;;3.35;1.40;;;10.90;99.90;;;;;;5025549;28;20197;-68
2023/10/23 05:57:15;;;;;;;3.38;1.88;;;10.90;99.90;;;;;;5027768;28;20182;-66
2023/10/23 05:59:41;;;;;;;3.55;2.00;;;10.80;99.90;;;;;;5032997;28;20260;-67
2023/10/23 06:02:06;;;;;;;2.70;1.73;;;10.90;99.90;;;;;;5036311;28;20182;-68
2023/10/23 06:04:32;;;;;;;2.00;1.55;;;10.80;99.90;;;;;;5036318;28;20194;-67
2023/10/23 06:06:58;;;;;;;1.85;1.63;;;10.80;99.90;;;;;;5036206;28;20205;-67
2023/10/23 06:09:23;;;;;;;2.45;1.58;;;10.80;99.90;;;;;;5036290;28;20178;-67
2023/10/23 06:11:49;;;;;;;2.90;1.60;;;10.80;99.90;;;;;;5036070;28;20227;-68
2023/10/23 06:14:17;;;;;;;2.35;1.80;;;10.80;99.90;;;;;;5034937;28;20166;-68
2023/10/23 06:16:42;;;;;;;2.47;1.80;;;10.80;99.90;;;;;;5035882;28;20185;-68
2023/10/23 06:19:08;;;;;;;3.72;1.90;;;10.70;99.90;;;;;;5036235;28;20206;-67
2023/10/23 06:21:34;;;;;;;2.83;2.08;;;10.70;99.90;;;;;;5017731;28;20280;-66
2023/10/23 06:24:03;;;;;;;3.08;2.08;;;10.70;99.90;;;;;;5016470;28;20171;-67
2023/10/23 06:26:31;;;;;;;2.42;2.00;;;10.70;99.90;;;;;;5016275;28;20209;-67
2023/10/23 06:28:57;;;;;;;3.30;2.08;;;10.70;99.90;;;;;;5016297;28;20167;-66
2023/10/23 06:31:25;;;;;;;2.70;1.98;;;10.70;99.90;;;;;;5018713;28;20179;-67
2023/10/23 06:33:52;;;;;;;2.67;2.00;;;10.70;99.90;;;;;;5035602;28;20228;-67
2023/10/23 06:36:22;;;;;;;2.35;1.95;;;10.70;99.90;;;;;;5022721;28;20178;-67
2023/10/23 06:38:50;;;;;;;3.42;1.95;;;10.70;99.90;;;;;;5035675;28;20177;-67
2023/10/23 06:41:16;;;;;;;2.78;2.00;;;10.70;99.90;;;;;;5035548;28;20181;-67
2023/10/23 06:43:41;;;;;;;2.45;2.10;;;10.70;99.90;;;;;;5035558;28;20174;-66
2023/10/23 06:46:09;;;;;;;2.67;2.00;;;10.80;99.90;;;;;;5035264;28;20209;-67
2023/10/23 06:48:35;;;;;;;3.42;2.10;;;10.80;99.90;;;;;;5035462;28;20182;-67
2023/10/23 06:51:00;;;;;;;2.83;2.13;;;10.80;99.90;;;;;;5035435;28;20173;-67
2023/10/23 06:53:26;;;;;;;2.50;1.95;;;10.80;99.90;;;;;;5035282;28;20205;-67
2023/10/23 06:55:53;;;;;;;5.22;2.25;;;10.90;99.90;;;;;;5035207;28;20193;-67
2023/10/23 06:58:20;;;;;;;2.47;2.10;;;10.90;99.90;;;;;;5035446;28;20174;-68
2023/10/23 07:00:46;;;;;;;3.30;2.50;;;10.90;99.90;;;;;;5035225;28;20263;-68
2023/10/23 07:03:13;;;;;;;4.32;2.35;;;10.90;99.90;;;;;;5046735;28;20174;-68
2023/10/23 07:05:41;;;;;;;2.22;1.95;;;11.00;99.90;;;;;;5042355;28;20204;-68
2023/10/23 07:08:09;;;;;;;2.42;2.22;;;11.00;99.90;;;;;;5034436;28;20271;-67
2023/10/23 07:10:38;;;;;;;2.58;2.20;;;11.10;99.90;;;;;;5035628;28;20166;-68
2023/10/23 07:13:06;;;;;;;2.63;2.40;;;11.10;99.90;;;;;;5035093;28;20174;-68
2023/10/23 07:15:34;;;;;;;4.70;2.60;;;11.10;99.90;;;;;;5034904;28;20289;-68
2023/10/23 07:18:00;;;;;;;3.25;2.38;;;11.20;99.90;;;;;;5035089;28;20214;-68
2023/10/23 07:20:25;;;;;;;3.40;2.55;;;11.20;99.90;;;;;;5034994;28;20205;-67
2023/10/23 07:22:51;;;;;;;4.38;2.72;;;11.20;99.90;;;;;;5034594;28;20206;-67
2023/10/23 07:25:19;;;;;;;3.17;2.58;;;11.20;99.90;;;;;;5034681;28;20170;-68
2023/10/23 07:27:45;;;;;;;4.00;2.85;;;11.30;99.90;;;;;;5035843;28;20259;-67
2023/10/23 07:30:11;;;;;;;5.20;2.58;;;11.30;99.90;;;;;;5034773;28;20194;-68
2023/10/23 07:32:39;;;;;;;3.58;2.85;;;11.40;99.90;;;;;;5016686;28;20199;-67
2023/10/23 07:35:08;;;;;;;3.05;2.63;;;11.40;99.90;;;;;;5015699;28;20201;-67
2023/10/23 07:37:33;;;;;;;3.53;3.03;;;11.50;99.90;;;;;;5014658;28;20196;-67
2023/10/23 07:40:04;;;;;;;2.92;2.58;;;11.50;99.90;;;;;;5014532;28;20175;-68
2023/10/23 07:42:30;;;;;;;3.35;2.60;;;11.60;99.90;;;;;;5014507;28;20289;-67
2023/10/23 07:44:56;;;;;;;3.25;2.67;;;11.60;99.90;;;;;;5015676;28;20273;-68
2023/10/23 07:47:24;;;;;;;3.08;2.78;;;11.70;99.90;;;;;;5027155;28;20269;-67
2023/10/23 07:49:51;;;;;;;5.13;3.30;;;11.70;99.90;;;;;;5014455;28;20194;-68
2023/10/23 07:52:20;;;;;;;4.25;3.35;;;11.80;99.90;;;;;;5014947;28;20207;-67
2023/10/23 07:54:46;;;;;;;6.32;3.70;;;11.80;99.90;;;;;;5014828;28;20171;-67
2023/10/23 07:57:12;;;;;;;5.32;3.80;;;11.90;99.90;;;;;;5024000;28;20216;-68
2023/10/23 07:59:40;;;;;;;4.15;3.75;;;12.00;99.90;;;;;;5032818;28;20191;-68
2023/10/23 08:02:08;;;;;;;4.78;3.63;;;12.00;99.90;;;;;;5054258;28;20200;-67
2023/10/23 08:04:33;;;;;;;4.82;3.83;;;12.10;99.90;;;;;;5054337;28;20240;-67
2023/10/23 08:07:03;;;;;;;5.50;4.18;;;12.10;99.90;;;;;;5053958;28;20283;-67
2023/10/23 08:09:31;;;;;;;4.93;4.20;;;12.20;99.90;;;;;;5054594;28;20169;-67
2023/10/23 08:11:57;;;;;;;5.60;4.20;;;12.20;99.90;;;;;;5054303;28;20177;-68
2023/10/23 08:14:25;;;;;;;5.15;3.85;;;12.30;99.90;;;;;;5043375;28;20202;-68
2023/10/23 08:16:53;;;;;;;4.82;3.88;;;12.40;99.90;;;;;;5034219;28;20186;-67
2023/10/23 08:19:20;;;;;;;5.75;4.32;;;12.40;99.90;;;;;;5033992;28;20217;-67
2023/10/23 08:21:46;;;;;;;4.43;3.70;;;12.50;99.90;;;;;;5034536;28;20250;-68
2023/10/23 08:24:16;;;;;;;4.55;3.90;;;12.60;99.90;;;;;;5025403;28;20250;-67
2023/10/23 08:26:41;;;;;;;4.97;4.10;;;12.70;99.90;;;;;;5029519;28;20212;-68
2023/10/23 08:29:09;;;;;;;4.60;3.67;;;12.70;99.90;;;;;;5034228;28;20173;-67
2023/10/23 08:31:35;;;;;;;4.47;3.60;;;12.80;99.90;;;;;;5021744;28;20179;-67
2023/10/23 08:34:03;;;;;;;4.50;3.40;;;12.90;99.90;;;;;;5022509;28;20268;-68
2023/10/23 08:36:28;;;;;;;3.88;3.30;;;12.90;99.90;;;;;;5034929;28;20224;-67
2023/10/23 08:38:54;;;;;;;3.65;3.35;;;13.00;99.90;;;;;;5038043;28;20174;-67
2023/10/23 08:41:20;;;;;;;3.90;3.10;;;13.10;99.90;;;;;;5037665;28;20229;-67
2023/10/23 08:43:46;;;;;;;3.28;2.90;;;13.10;99.90;;;;;;5037813;28;20181;-67
2023/10/23 08:46:12;;;;;;;3.13;2.85;;;13.20;99.90;;;;;;5034564;28;20183;-67
2023/10/23 08:48:38;;;;;;;3.55;3.13;;;13.20;99.90;;;;;;5034319;28;20208;-69
2023/10/23 08:51:04;;;;;;;4.20;3.03;;;13.30;99.90;;;;;;5034522;28;20171;-67
2023/10/23 08:53:34;;;;;;;2.83;2.42;;;13.40;99.90;;;;;;5035100;28;20262;-67
2023/10/23 08:56:06;;;;;;;3.05;2.65;;;13.50;99.90;;;;;;5037754;28;20169;-68
2023/10/23 08:58:33;;;;;;;3.50;2.88;;;13.50;99.90;;;;;;5037567;28;20182;-68
2023/10/23 09:01:04;;;;;;;2.95;2.65;;;13.60;99.90;;;;;;5037419;28;20202;-67
2023/10/23 09:03:32;;;;;;;3.22;2.35;;;13.70;99.90;;;;;;5017779;28;20261;-67
2023/10/23 09:05:58;;;;;;;2.83;2.30;;;13.80;99.90;;;;;;5033437;28;20209;-66
2023/10/23 09:08:27;;;;;;;3.15;2.45;;;13.80;99.90;;;;;;5037421;28;20194;-66
2023/10/23 09:11:06;;;;;;;2.67;2.20;;;13.90;99.90;;;;;;5037293;28;20174;-66
2023/10/23 09:13:39;;;;;;;3.28;2.35;;;14.00;99.90;;;;;;5043109;28;20177;-69
2023/10/23 09:16:06;;;;;;;4.93;2.70;;;14.10;99.90;;;;;;5057266;28;20162;-66
2023/10/23 09:18:55;;;;;;;2.95;2.47;;;14.20;99.90;;;;;;5042864;28;20233;-67
2023/10/23 09:21:21;;;;;;;3.92;2.80;;;14.20;99.90;;;;;;5036853;28;20170;-67
2023/10/23 09:23:51;;;;;;;4.82;2.85;;;14.30;99.90;;;;;;5037314;28;20182;-69
2023/10/23 09:26:18;;;;;;;4.47;3.20;;;14.40;99.90;;;;;;5036950;28;20194;-67
2023/10/23 09:28:44;;;;;;;5.40;3.35;;;14.40;99.90;;;;;;5037764;28;20170;-67
2023/10/23 09:31:10;;;;;;;4.88;3.20;;;14.40;99.90;;;;;;5037153;28;20288;-68
2023/10/23 09:33:35;;;;;;;4.43;3.30;;;14.40;99.90;;;;;;5037032;28;20213;-68
2023/10/23 09:36:04;;;;;;;4.20;2.92;;;14.40;99.90;;;;;;5033872;28;20179;-67
2023/10/23 09:38:30;;;;;;;4.18;3.03;;;14.50;99.90;;;;;;5036873;28;20472;-68
2023/10/23 09:41:00;;;;;;;4.75;3.15;;;14.50;99.90;;;;;;5037149;28;20189;-67
2023/10/23 09:43:28;;;;;;;3.58;3.28;;;14.60;99.90;;;;;;5036972;28;20209;-67
2023/10/23 09:46:00;;;;;;;4.22;3.03;;;14.80;99.90;;;;;;5036959;28;20265;-68
2023/10/23 09:48:34;;;;;;;4.90;3.58;;;14.90;99.90;;;;;;5035042;28;20189;-67
2023/10/23 09:51:03;;;;;;;4.43;3.20;;;15.00;99.90;;;;;;5047314;28;20205;-68
2023/10/23 09:53:34;;;;;;;5.05;3.20;;;15.10;99.90;;;;;;5056648;28;20268;-66
2023/10/23 09:56:08;;;;;;;4.07;3.17;;;15.10;99.90;;;;;;5043140;28;20178;-68
2023/10/23 09:58:37;;;;;;;4.88;3.15;;;15.20;99.90;;;;;;5020413;28;20198;-69
2023/10/23 10:01:05;;;;;;;3.55;3.05;;;15.20;99.90;;;;;;5025244;28;20213;-68
2023/10/23 10:03:36;;;;;;;3.92;2.97;;;15.30;99.90;;;;;;5036239;28;20205;-69
2023/10/23 10:06:13;;;;;;;5.05;3.70;;;15.40;99.90;;;;;;5036604;28;20213;-68
2023/10/23 10:08:49;;;;;;;5.10;3.00;;;15.50;99.90;;;;;;5035978;28;20200;-67
2023/10/23 10:11:19;;;;;;;4.22;2.85;;;15.60;99.90;;;;;;5036045;28;20194;-67
2023/10/23 10:13:46;;;;;;;4.10;3.22;;;15.60;99.90;;;;;;5035901;28;20178;-68
2023/10/23 10:16:12;;;;;;;3.90;3.22;;;15.70;99.90;;;;;;5036108;28;20201;-68
2023/10/23 10:18:45;;;;;;;4.88;3.20;;;15.80;99.90;;;;;;5036092;28;20197;-69
2023/10/23 10:21:12;;;;;;;4.63;3.13;;;15.80;99.90;;;;;;5036166;28;20199;-67
2023/10/23 10:23:39;;;;;;;4.68;2.88;;;15.80;99.90;;;;;;5033232;28;20178;-69
2023/10/23 10:26:08;;;;;;;4.28;2.92;;;15.80;99.90;;;;;;5035742;28;20212;-67
2023/10/23 10:28:38;;;;;;;5.18;3.13;;;15.80;99.90;;;;;;5036011;28;20198;-68
2023/10/23 10:31:04;;;;;;;4.43;2.70;;;15.90;99.90;;;;;;5035683;28;20185;-66
2023/10/23 10:33:46;;;;;;;4.63;2.53;;;15.90;99.90;;;;;;5036050;28;20171;-68
2023/10/23 10:36:31;;;;;;;5.03;2.90;;;15.90;99.90;;;;;;5035816;28;20170;-71
2023/10/23 10:39:45;;;;;;;4.15;2.65;;;16.00;99.90;;;;;;5035719;28;20206;-67
2023/10/23 10:42:16;;;;;;;5.15;2.50;;;16.10;99.90;;;;;;5043755;28;20235;-69
2023/10/23 10:45:07;;;;;;;3.42;2.40;;;16.10;99.90;;;;;;5035536;28;20190;-68
2023/10/23 10:47:40;;;;;;;6.30;2.45;;;16.30;99.90;;;;;;5033845;28;20202;-67
2023/10/23 10:50:06;;;;;;;3.45;2.42;;;16.30;99.90;;;;;;5034739;28;20174;-67
2023/10/23 10:52:42;;;;;;;3.33;2.63;;;16.30;99.90;;;;;;5035525;28;20198;-67
2023/10/23 10:55:13;;;;;;;4.55;2.33;;;16.40;99.90;;;;;;5035550;28;20177;-68
2023/10/23 10:57:55;;;;;;;2.45;1.92;;;16.40;99.90;;;;;;5035473;28;20220;-67
2023/10/23 11:00:23;;;;;;;3.15;2.17;;;16.50;99.90;;;;;;5034865;28;20197;-67
2023/10/23 11:02:52;;;;;;;3.60;2.35;;;16.50;99.90;;;;;;5035090;28;20186;-68
2023/10/23 11:05:20;;;;;;;4.30;2.38;;;16.50;99.90;;;;;;5035127;28;20174;-68
2023/10/23 11:07:51;;;;;;;4.45;2.63;;;16.60;99.90;;;;;;5034989;28;20198;-68
2023/10/23 11:10:17;;;;;;;3.90;2.35;;;16.60;99.90;;;;;;5035267;28;20173;-68
2023/10/23 11:12:50;;;;;;;3.88;2.40;;;16.60;99.90;;;;;;5035188;28;20240;-67
2023/10/23 11:15:16;;;;;;;2.70;2.22;;;16.60;99.90;;;;;;5035045;28;20178;-70
2023/10/23 11:17:44;;;;;;;4.18;2.55;;;16.60;99.90;;;;;;5034742;28;20188;-67
2023/10/23 11:20:17;;;;;;;2.85;2.20;;;16.60;99.90;;;;;;5030809;28;20190;-65
2023/10/23 11:22:44;;;;;;;3.88;2.20;;;16.60;99.90;;;;;;5034868;28;20265;-66
2023/10/23 11:25:13;;;;;;;4.38;2.35;;;16.60;99.90;;;;;;5034817;28;20243;-67
2023/10/23 11:27:39;;;;;;;3.22;2.22;;;16.60;99.90;;;;;;5034752;28;20209;-67
2023/10/23 11:30:06;;;;;;;2.60;2.15;;;16.50;99.90;;;;;;5034735;28;20231;-67
2023/10/23 11:32:32;;;;;;;2.83;2.20;;;16.60;99.90;;;;;;5034673;28;20186;-67
2023/10/23 11:35:03;;;;;;;5.15;2.60;;;16.50;99.90;;;;;;5034502;28;20174;-67
2023/10/23 11:37:40;;;;;;;3.15;2.03;;;16.50;99.90;;;;;;5034543;28;20450;-67
2023/10/23 11:40:07;;;;;;;3.70;2.17;;;16.50;99.90;;;;;;5034847;28;20185;-67
2023/10/23 11:42:43;;;;;;;3.58;1.95;;;16.50;99.90;;;;;;5034843;28;20189;-67
2023/10/23 11:45:11;;;;;;;4.65;2.40;;;16.50;99.90;;;;;;5034648;28;20192;-67
2023/10/23 11:47:40;;;;;;;2.83;2.08;;;16.60;99.90;;;;;;5034268;28;20214;-69
2023/10/23 11:50:10;;;;;;;4.70;2.00;;;16.60;99.90;;;;;;5034323;28;20170;-67
2023/10/23 11:52:41;;;;;;;2.97;2.10;;;16.60;99.90;;;;;;5034575;28;20185;-67
2023/10/23 11:55:08;;;;;;;2.88;1.85;;;16.60;99.90;;;;;;5034223;28;20308;-68
2023/10/23 11:57:33;;;;;;;3.25;1.90;;;16.60;99.90;;;;;;5044277;28;20217;-67
2023/10/23 12:00:06;;;;;;;2.88;1.92;;;16.60;99.90;;;;;;5034869;28;20204;-67
2023/10/23 12:02:32;;;;;;;4.85;1.88;;;16.70;99.90;;;;;;5034547;28;20200;-67
2023/10/23 12:05:00;;;;;;;2.28;1.55;;;16.70;99.90;;;;;;5034752;28;20178;-67
2023/10/23 12:07:28;;;;;;;3.33;1.67;;;16.80;99.90;;;;;;5034502;28;20194;-67
2023/10/23 12:09:54;;;;;;;3.65;1.90;;;16.90;99.90;;;;;;5034384;28;20178;-67
2023/10/23 12:12:19;;;;;;;3.75;1.80;;;16.90;99.90;;;;;;5036868;28;20185;-67
2023/10/23 12:14:47;;;;;;;2.53;1.60;;;17.00;99.90;;;;;;5038370;28;20197;-67
2023/10/23 12:17:17;;;;;;;3.08;1.60;;;17.10;99.90;;;;;;5027211;28;20189;-67
2023/10/23 12:19:43;;;;;;;5.55;1.65;;;17.20;99.90;;;;;;5019466;28;20178;-66
2023/10/23 12:22:09;;;;;;;2.60;1.80;;;17.30;99.90;;;;;;5030241;28;20212;-67
2023/10/23 12:24:34;;;;;;;3.00;1.70;;;17.30;99.90;;;;;;5038478;28;20188;-66
2023/10/23 12:27:00;;;;;;;3.47;1.83;;;17.40;99.90;;;;;;5038315;28;20205;-67
2023/10/23 12:29:28;;;;;;;3.58;1.80;;;17.50;99.90;;;;;;5038059;28;20248;-67
2023/10/23 12:31:56;;;;;;;2.65;1.48;;;17.50;99.90;;;;;;5038193;28;20174;-67
2023/10/23 12:34:22;;;;;;;2.55;1.70;;;17.50;99.90;;;;;;5038213;28;20196;-67
2023/10/23 12:36:47;;;;;;;3.28;1.70;;;17.50;99.90;;;;;;5038122;28;20186;-66
2023/10/23 12:39:13;;;;;;;2.05;1.60;;;17.60;99.90;;;;;;5026565;28;20171;-67
2023/10/23 12:41:39;;;;;;;3.72;1.90;;;17.60;99.90;;;;;;5049924;28;20189;-66
2023/10/23 12:44:04;;;;;;;2.75;1.80;;;17.60;99.90;;;;;;5038231;28;20182;-67
2023/10/23 12:46:34;;;;;;;2.95;1.63;;;17.60;99.90;;;;;;5042972;28;20190;-66
2023/10/23 12:49:03;;;;;;;2.97;1.73;;;17.60;99.90;;;;;;5043013;28;20209;-67
2023/10/23 12:51:28;;;;;;;3.17;1.50;;;17.50;99.90;;;;;;5038531;28;20228;-67